sensor_id;sensor_type;location;lat;lon;timestamp;temperature;humidity
69543;SHT31;56762;49.494;11.768;2023-03-15T00:02:22;3.18;88.57
69543;SHT31;56762;49.494;11.768;2023-03-15T00:04:51;3.17;88.72
69543;SHT31;56762;49.494;11.768;2023-03-15T00:07:20;3.12;88.85
69543;SHT31;56762;49.494;11.768;2023-03-15T00:09:51;3.14;89.40
69543;SHT31;56762;49.494;11.768;2023-03-15T00:12:19;3.14;89.27
69543;SHT31;56762;49.494;11.768;2023-03-15T00:14:48;3.17;88.77
69543;SHT31;56762;49.494;11.768;2023-03-15T00:17:16;3.15;88.76
69543;SHT31;56762;49.494;11.768;2023-03-15T00:19:44;3.11;88.70
69543;SHT31;56762;49.494;11.768;2023-03-15T00:22:14;3.10;88.74
69543;SHT31;56762;49.494;11.768;2023-03-15T00:24:43;3.07;87.82
69543;SHT31;56762;49.494;11.768;2023-03-15T00:27:11;3.04;87.50
69543;SHT31;56762;49.494;11.768;2023-03-15T00:29:39;3.07;88.22
69543;SHT31;56762;49.494;11.768;2023-03-15T00:32:07;3.08;87.83
69543;SHT31;56762;49.494;11.768;2023-03-15T00:34:35;3.11;88.50
69543;SHT31;56762;49.494;11.768;2023-03-15T00:37:02;3.10;89.06
69543;SHT31;56762;49.494;11.768;2023-03-15T00:39:33;3.10;89.01
69543;SHT31;56762;49.494;11.768;2023-03-15T00:42:03;3.14;88.92
69543;SHT31;56762;49.494;11.768;2023-03-15T00:44:31;3.11;88.47
69543;SHT31;56762;49.494;11.768;2023-03-15T00:46:59;3.10;88.14
69543;SHT31;56762;49.494;11.768;2023-03-15T00:49:31;3.08;88.28
69543;SHT31;56762;49.494;11.768;2023-03-15T00:51:59;3.01;87.87
69543;SHT31;56762;49.494;11.768;2023-03-15T00:54:27;3.00;87.73
69543;SHT31;56762;49.494;11.768;2023-03-15T00:56:56;2.93;88.10
69543;SHT31;56762;49.494;11.768;2023-03-15T00:59:24;2.89;88.55
69543;SHT31;56762;49.494;11.768;2023-03-15T01:01:54;2.86;88.53
69543;SHT31;56762;49.494;11.768;2023-03-15T01:04:22;2.81;88.74
69543;SHT31;56762;49.494;11.768;2023-03-15T01:06:51;2.80;88.65
69543;SHT31;56762;49.494;11.768;2023-03-15T01:09:18;2.79;88.43
69543;SHT31;56762;49.494;11.768;2023-03-15T01:11:46;2.79;89.32
69543;SHT31;56762;49.494;11.768;2023-03-15T01:14:16;2.80;88.93
69543;SHT31;56762;49.494;11.768;2023-03-15T01:16:45;2.84;88.28
69543;SHT31;56762;49.494;11.768;2023-03-15T01:19:13;2.86;88.60
69543;SHT31;56762;49.494;11.768;2023-03-15T01:21:41;2.87;88.41
69543;SHT31;56762;49.494;11.768;2023-03-15T01:24:14;2.84;88.10
69543;SHT31;56762;49.494;11.768;2023-03-15T01:26:42;2.89;88.77
69543;SHT31;56762;49.494;11.768;2023-03-15T01:29:10;2.91;88.97
69543;SHT31;56762;49.494;11.768;2023-03-15T01:31:40;2.94;88.75
69543;SHT31;56762;49.494;11.768;2023-03-15T01:34:08;3.00;88.33
69543;SHT31;56762;49.494;11.768;2023-03-15T01:36:37;3.04;87.57
69543;SHT31;56762;49.494;11.768;2023-03-15T01:39:05;3.00;88.30
69543;SHT31;56762;49.494;11.768;2023-03-15T01:41:33;2.99;88.56
69543;SHT31;56762;49.494;11.768;2023-03-15T01:44:01;3.03;88.99
69543;SHT31;56762;49.494;11.768;2023-03-15T01:46:30;3.08;89.10
69543;SHT31;56762;49.494;11.768;2023-03-15T01:49:04;3.14;88.92
69543;SHT31;56762;49.494;11.768;2023-03-15T01:51:36;3.20;88.55
69543;SHT31;56762;49.494;11.768;2023-03-15T01:54:09;3.22;88.48
69543;SHT31;56762;49.494;11.768;2023-03-15T01:56:42;3.20;88.41
69543;SHT31;56762;49.494;11.768;2023-03-15T01:59:15;3.21;88.58
69543;SHT31;56762;49.494;11.768;2023-03-15T02:01:47;3.17;88.03
69543;SHT31;56762;49.494;11.768;2023-03-15T02:04:21;3.11;88.30
69543;SHT31;56762;49.494;11.768;2023-03-15T02:06:53;3.10;88.13
69543;SHT31;56762;49.494;11.768;2023-03-15T02:09:28;3.12;88.11
69543;SHT31;56762;49.494;11.768;2023-03-15T02:11:57;3.07;88.12
69543;SHT31;56762;49.494;11.768;2023-03-15T02:14:26;3.03;88.50
69543;SHT31;56762;49.494;11.768;2023-03-15T02:16:55;3.05;88.43
69543;SHT31;56762;49.494;11.768;2023-03-15T02:19:34;3.03;88.89
69543;SHT31;56762;49.494;11.768;2023-03-15T02:22:11;3.08;88.41
69543;SHT31;56762;49.494;11.768;2023-03-15T02:24:49;3.04;88.65
69543;SHT31;56762;49.494;11.768;2023-03-15T02:27:25;3.08;88.10
69543;SHT31;56762;49.494;11.768;2023-03-15T02:29:55;3.07;88.41
69543;SHT31;56762;49.494;11.768;2023-03-15T02:32:23;3.05;88.27
69543;SHT31;56762;49.494;11.768;2023-03-15T02:34:51;2.96;87.33
69543;SHT31;56762;49.494;11.768;2023-03-15T02:37:19;2.96;87.76
69543;SHT31;56762;49.494;11.768;2023-03-15T02:39:47;2.93;87.10
69543;SHT31;56762;49.494;11.768;2023-03-15T02:42:16;2.83;86.03
69543;SHT31;56762;49.494;11.768;2023-03-15T02:44:47;2.46;86.54
69543;SHT31;56762;49.494;11.768;2023-03-15T02:47:19;2.30;87.11
69543;SHT31;56762;49.494;11.768;2023-03-15T02:49:50;2.19;85.49
69543;SHT31;56762;49.494;11.768;2023-03-15T02:52:19;2.18;86.75
69543;SHT31;56762;49.494;11.768;2023-03-15T02:54:48;2.17;87.13
69543;SHT31;56762;49.494;11.768;2023-03-15T02:57:17;2.14;88.59
69543;SHT31;56762;49.494;11.768;2023-03-15T02:59:48;2.12;89.24
69543;SHT31;56762;49.494;11.768;2023-03-15T03:02:17;2.18;89.53
69543;SHT31;56762;49.494;11.768;2023-03-15T03:04:45;2.15;89.87
69543;SHT31;56762;49.494;11.768;2023-03-15T03:07:13;2.17;90.22
69543;SHT31;56762;49.494;11.768;2023-03-15T03:09:42;2.17;90.26
69543;SHT31;56762;49.494;11.768;2023-03-15T03:12:10;2.25;90.48
69543;SHT31;56762;49.494;11.768;2023-03-15T03:14:38;2.25;90.75
69543;SHT31;56762;49.494;11.768;2023-03-15T03:17:10;2.32;90.43
69543;SHT31;56762;49.494;11.768;2023-03-15T03:19:38;2.35;90.66
69543;SHT31;56762;49.494;11.768;2023-03-15T03:22:06;2.33;90.76
69543;SHT31;56762;49.494;11.768;2023-03-15T03:24:34;2.39;90.21
69543;SHT31;56762;49.494;11.768;2023-03-15T03:27:02;2.42;90.36
69543;SHT31;56762;49.494;11.768;2023-03-15T03:29:30;2.39;90.21
69543;SHT31;56762;49.494;11.768;2023-03-15T03:31:58;2.39;90.20
69543;SHT31;56762;49.494;11.768;2023-03-15T03:34:28;2.39;90.22
69543;SHT31;56762;49.494;11.768;2023-03-15T03:36:57;2.32;89.30
69543;SHT31;56762;49.494;11.768;2023-03-15T03:39:24;2.33;90.00
69543;SHT31;56762;49.494;11.768;2023-03-15T03:41:52;2.33;90.16
69543;SHT31;56762;49.494;11.768;2023-03-15T03:44:20;2.36;90.19
69543;SHT31;56762;49.494;11.768;2023-03-15T03:46:48;2.38;89.70
69543;SHT31;56762;49.494;11.768;2023-03-15T03:49:16;2.40;90.20
69543;SHT31;56762;49.494;11.768;2023-03-15T03:51:46;2.49;90.43
69543;SHT31;56762;49.494;11.768;2023-03-15T03:54:13;2.50;90.57
69543;SHT31;56762;49.494;11.768;2023-03-15T03:56:43;2.49;89.60
69543;SHT31;56762;49.494;11.768;2023-03-15T03:59:11;2.42;89.71
69543;SHT31;56762;49.494;11.768;2023-03-15T04:01:40;2.39;89.56
69543;SHT31;56762;49.494;11.768;2023-03-15T04:04:08;2.32;89.84
69543;SHT31;56762;49.494;11.768;2023-03-15T04:06:40;2.28;89.74
69543;SHT31;56762;49.494;11.768;2023-03-15T04:09:13;2.24;89.55
69543;SHT31;56762;49.494;11.768;2023-03-15T04:11:42;2.19;89.27
69543;SHT31;56762;49.494;11.768;2023-03-15T04:14:11;2.08;90.08
69543;SHT31;56762;49.494;11.768;2023-03-15T04:16:40;2.02;90.27
69543;SHT31;56762;49.494;11.768;2023-03-15T04:19:08;1.98;90.44
69543;SHT31;56762;49.494;11.768;2023-03-15T04:21:38;2.04;90.40
69543;SHT31;56762;49.494;11.768;2023-03-15T04:24:14;2.02;89.85
69543;SHT31;56762;49.494;11.768;2023-03-15T04:26:42;2.01;90.12
69543;SHT31;56762;49.494;11.768;2023-03-15T04:29:10;1.95;90.51
69543;SHT31;56762;49.494;11.768;2023-03-15T04:31:40;1.98;90.56
69543;SHT31;56762;49.494;11.768;2023-03-15T04:34:08;1.98;90.58
69543;SHT31;56762;49.494;11.768;2023-03-15T04:36:36;1.98;90.49
69543;SHT31;56762;49.494;11.768;2023-03-15T04:39:05;1.95;90.49
69543;SHT31;56762;49.494;11.768;2023-03-15T04:41:34;1.94;90.50
69543;SHT31;56762;49.494;11.768;2023-03-15T04:44:03;1.95;90.32
69543;SHT31;56762;49.494;11.768;2023-03-15T04:46:31;1.90;89.63
69543;SHT31;56762;49.494;11.768;2023-03-15T04:48:59;1.84;90.16
69543;SHT31;56762;49.494;11.768;2023-03-15T04:51:30;1.77;90.35
69543;SHT31;56762;49.494;11.768;2023-03-15T04:54:00;1.75;90.20
69543;SHT31;56762;49.494;11.768;2023-03-15T04:56:29;1.71;90.41
69543;SHT31;56762;49.494;11.768;2023-03-15T04:58:58;1.68;91.00
69543;SHT31;56762;49.494;11.768;2023-03-15T05:01:28;1.66;90.85
69543;SHT31;56762;49.494;11.768;2023-03-15T05:03:56;1.56;90.89
69543;SHT31;56762;49.494;11.768;2023-03-15T05:06:25;1.54;91.02
69543;SHT31;56762;49.494;11.768;2023-03-15T05:08:53;1.47;91.29
69543;SHT31;56762;49.494;11.768;2023-03-15T05:11:21;1.46;91.42
69543;SHT31;56762;49.494;11.768;2023-03-15T05:13:49;1.43;91.40
69543;SHT31;56762;49.494;11.768;2023-03-15T05:16:18;1.42;91.40
69543;SHT31;56762;49.494;11.768;2023-03-15T05:18:46;1.39;91.45
69543;SHT31;56762;49.494;11.768;2023-03-15T05:21:14;1.37;91.53
69543;SHT31;56762;49.494;11.768;2023-03-15T05:23:42;1.36;91.65
69543;SHT31;56762;49.494;11.768;2023-03-15T05:26:10;1.36;91.88
69543;SHT31;56762;49.494;11.768;2023-03-15T05:28:39;1.36;91.73
69543;SHT31;56762;49.494;11.768;2023-03-15T05:31:10;1.37;91.64
69543;SHT31;56762;49.494;11.768;2023-03-15T05:33:40;1.39;91.86
69543;SHT31;56762;49.494;11.768;2023-03-15T05:36:13;1.35;91.61
69543;SHT31;56762;49.494;11.768;2023-03-15T05:38:40;1.32;92.17
69543;SHT31;56762;49.494;11.768;2023-03-15T05:41:11;1.35;92.07
69543;SHT31;56762;49.494;11.768;2023-03-15T05:43:43;1.35;91.90
69543;SHT31;56762;49.494;11.768;2023-03-15T05:46:12;1.35;91.84
69543;SHT31;56762;49.494;11.768;2023-03-15T05:48:41;1.32;91.74
69543;SHT31;56762;49.494;11.768;2023-03-15T05:51:10;1.33;91.78
69543;SHT31;56762;49.494;11.768;2023-03-15T05:53:38;1.40;91.32
69543;SHT31;56762;49.494;11.768;2023-03-15T05:56:07;1.44;91.00
69543;SHT31;56762;49.494;11.768;2023-03-15T05:58:35;1.43;90.98
69543;SHT31;56762;49.494;11.768;2023-03-15T06:01:03;1.57;90.36
69543;SHT31;56762;49.494;11.768;2023-03-15T06:03:31;1.54;89.96
69543;SHT31;56762;49.494;11.768;2023-03-15T06:06:01;1.67;90.27
69543;SHT31;56762;49.494;11.768;2023-03-15T06:08:30;1.75;91.08
69543;SHT31;56762;49.494;11.768;2023-03-15T06:10:58;1.81;90.49
69543;SHT31;56762;49.494;11.768;2023-03-15T06:13:25;1.85;90.56
69543;SHT31;56762;49.494;11.768;2023-03-15T06:15:53;1.95;90.96
69543;SHT31;56762;49.494;11.768;2023-03-15T06:18:21;2.11;90.39
69543;SHT31;56762;49.494;11.768;2023-03-15T06:20:49;2.29;89.36
69543;SHT31;56762;49.494;11.768;2023-03-15T06:23:18;2.36;87.93
69543;SHT31;56762;49.494;11.768;2023-03-15T06:25:47;2.46;87.21
69543;SHT31;56762;49.494;11.768;2023-03-15T06:28:15;2.49;87.29
69543;SHT31;56762;49.494;11.768;2023-03-15T06:30:43;2.50;87.21
69543;SHT31;56762;49.494;11.768;2023-03-15T06:33:11;2.48;85.31
69543;SHT31;56762;49.494;11.768;2023-03-15T06:35:40;2.48;86.42
69543;SHT31;56762;49.494;11.768;2023-03-15T06:38:08;2.48;86.45
69543;SHT31;56762;49.494;11.768;2023-03-15T06:40:40;2.50;86.12
69543;SHT31;56762;49.494;11.768;2023-03-15T06:43:09;2.49;86.19
69543;SHT31;56762;49.494;11.768;2023-03-15T06:45:43;2.53;85.84
69543;SHT31;56762;49.494;11.768;2023-03-15T06:48:13;2.60;86.03
69543;SHT31;56762;49.494;11.768;2023-03-15T06:50:41;2.63;84.54
69543;SHT31;56762;49.494;11.768;2023-03-15T06:53:12;2.64;84.95
69543;SHT31;56762;49.494;11.768;2023-03-15T06:55:42;2.60;83.34
69543;SHT31;56762;49.494;11.768;2023-03-15T06:58:10;2.54;83.25
69543;SHT31;56762;49.494;11.768;2023-03-15T07:00:38;2.38;84.42
69543;SHT31;56762;49.494;11.768;2023-03-15T07:03:07;2.30;83.57
69543;SHT31;56762;49.494;11.768;2023-03-15T07:05:35;2.33;83.96
69543;SHT31;56762;49.494;11.768;2023-03-15T07:08:04;2.45;84.44
69543;SHT31;56762;49.494;11.768;2023-03-15T07:10:32;2.50;83.08
69543;SHT31;56762;49.494;11.768;2023-03-15T07:13:01;2.49;82.97
69543;SHT31;56762;49.494;11.768;2023-03-15T07:15:31;2.54;84.14
69543;SHT31;56762;49.494;11.768;2023-03-15T07:17:59;2.59;84.54
69543;SHT31;56762;49.494;11.768;2023-03-15T07:20:27;2.66;84.16
69543;SHT31;56762;49.494;11.768;2023-03-15T07:22:57;2.73;84.19
69543;SHT31;56762;49.494;11.768;2023-03-15T07:25:24;2.69;82.80
69543;SHT31;56762;49.494;11.768;2023-03-15T07:27:52;2.64;83.99
69543;SHT31;56762;49.494;11.768;2023-03-15T07:30:22;2.67;84.17
69543;SHT31;56762;49.494;11.768;2023-03-15T07:32:50;2.70;84.23
69543;SHT31;56762;49.494;11.768;2023-03-15T07:35:18;2.83;83.80
69543;SHT31;56762;49.494;11.768;2023-03-15T07:37:46;2.96;83.37
69543;SHT31;56762;49.494;11.768;2023-03-15T07:40:15;3.04;83.34
69543;SHT31;56762;49.494;11.768;2023-03-15T07:42:42;3.07;82.06
69543;SHT31;56762;49.494;11.768;2023-03-15T07:45:11;3.12;81.59
69543;SHT31;56762;49.494;11.768;2023-03-15T07:47:40;3.11;81.48
69543;SHT31;56762;49.494;11.768;2023-03-15T07:50:09;3.01;80.96
69543;SHT31;56762;49.494;11.768;2023-03-15T07:52:38;3.05;83.22
69543;SHT31;56762;49.494;11.768;2023-03-15T07:55:07;3.18;82.93
69543;SHT31;56762;49.494;11.768;2023-03-15T07:57:35;3.38;83.09
69543;SHT31;56762;49.494;11.768;2023-03-15T08:00:04;3.56;83.26
69543;SHT31;56762;49.494;11.768;2023-03-15T08:02:32;3.83;81.84
69543;SHT31;56762;49.494;11.768;2023-03-15T08:05:01;4.03;81.43
69543;SHT31;56762;49.494;11.768;2023-03-15T08:07:30;4.23;78.96
69543;SHT31;56762;49.494;11.768;2023-03-15T08:09:58;4.25;78.98
69543;SHT31;56762;49.494;11.768;2023-03-15T08:12:27;4.23;78.49
69543;SHT31;56762;49.494;11.768;2023-03-15T08:14:55;4.33;78.53
69543;SHT31;56762;49.494;11.768;2023-03-15T08:17:23;4.48;77.41
69543;SHT31;56762;49.494;11.768;2023-03-15T08:19:51;4.67;79.53
69543;SHT31;56762;49.494;11.768;2023-03-15T08:22:21;4.79;77.54
69543;SHT31;56762;49.494;11.768;2023-03-15T08:24:49;4.82;77.57
69543;SHT31;56762;49.494;11.768;2023-03-15T08:27:18;4.83;76.71
69543;SHT31;56762;49.494;11.768;2023-03-15T08:29:46;4.76;76.54
69543;SHT31;56762;49.494;11.768;2023-03-15T08:32:15;4.88;77.49
69543;SHT31;56762;49.494;11.768;2023-03-15T08:34:44;4.93;77.84
69543;SHT31;56762;49.494;11.768;2023-03-15T08:37:12;4.93;74.72
69543;SHT31;56762;49.494;11.768;2023-03-15T08:39:42;5.05;76.17
69543;SHT31;56762;49.494;11.768;2023-03-15T08:42:09;5.06;74.34
69543;SHT31;56762;49.494;11.768;2023-03-15T08:44:37;5.20;76.17
69543;SHT31;56762;49.494;11.768;2023-03-15T08:47:05;5.11;75.98
69543;SHT31;56762;49.494;11.768;2023-03-15T08:49:33;5.02;74.70
69543;SHT31;56762;49.494;11.768;2023-03-15T08:52:01;4.96;73.50
69543;SHT31;56762;49.494;11.768;2023-03-15T08:54:29;4.92;73.89
69543;SHT31;56762;49.494;11.768;2023-03-15T08:56:58;4.93;74.22
69543;SHT31;56762;49.494;11.768;2023-03-15T08:59:26;4.88;74.90
69543;SHT31;56762;49.494;11.768;2023-03-15T09:01:58;4.91;73.94
69543;SHT31;56762;49.494;11.768;2023-03-15T09:04:26;4.83;75.25
69543;SHT31;56762;49.494;11.768;2023-03-15T09:06:54;4.93;75.19
69543;SHT31;56762;49.494;11.768;2023-03-15T09:09:24;4.95;76.31
69543;SHT31;56762;49.494;11.768;2023-03-15T09:11:52;4.93;77.46
69543;SHT31;56762;49.494;11.768;2023-03-15T09:14:23;4.88;75.07
69543;SHT31;56762;49.494;11.768;2023-03-15T09:16:51;4.81;74.69
69543;SHT31;56762;49.494;11.768;2023-03-15T09:19:18;4.83;77.26
69543;SHT31;56762;49.494;11.768;2023-03-15T09:21:46;4.79;77.96
69543;SHT31;56762;49.494;11.768;2023-03-15T09:24:14;4.76;77.50
69543;SHT31;56762;49.494;11.768;2023-03-15T09:26:42;4.68;76.29
69543;SHT31;56762;49.494;11.768;2023-03-15T09:29:10;4.71;76.24
69543;SHT31;56762;49.494;11.768;2023-03-15T09:31:39;4.72;76.95
69543;SHT31;56762;49.494;11.768;2023-03-15T09:34:07;4.73;75.09
69543;SHT31;56762;49.494;11.768;2023-03-15T09:36:36;4.85;77.15
69543;SHT31;56762;49.494;11.768;2023-03-15T09:39:04;5.08;76.76
69543;SHT31;56762;49.494;11.768;2023-03-15T09:41:40;5.43;77.42
69543;SHT31;56762;49.494;11.768;2023-03-15T09:44:27;5.71;74.61
69543;SHT31;56762;49.494;11.768;2023-03-15T09:47:07;5.91;74.19
69543;SHT31;56762;49.494;11.768;2023-03-15T09:49:43;6.04;73.26
69543;SHT31;56762;49.494;11.768;2023-03-15T09:52:25;6.01;71.33
69543;SHT31;56762;49.494;11.768;2023-03-15T09:54:57;5.90;69.75
69543;SHT31;56762;49.494;11.768;2023-03-15T09:57:34;5.63;68.11
69543;SHT31;56762;49.494;11.768;2023-03-15T10:00:04;5.68;70.08
69543;SHT31;56762;49.494;11.768;2023-03-15T10:02:42;5.65;69.95
69543;SHT31;56762;49.494;11.768;2023-03-15T10:05:18;5.71;70.97
69543;SHT31;56762;49.494;11.768;2023-03-15T10:07:47;5.75;71.16
69543;SHT31;56762;49.494;11.768;2023-03-15T10:10:22;5.75;70.34
69543;SHT31;56762;49.494;11.768;2023-03-15T10:12:58;5.78;70.59
69543;SHT31;56762;49.494;11.768;2023-03-15T10:15:39;5.77;70.00
69543;SHT31;56762;49.494;11.768;2023-03-15T10:18:24;5.99;71.04
69543;SHT31;56762;49.494;11.768;2023-03-15T10:20:59;6.15;71.08
69543;SHT31;56762;49.494;11.768;2023-03-15T10:23:36;6.30;71.60
69543;SHT31;56762;49.494;11.768;2023-03-15T10:26:10;6.39;70.66
69543;SHT31;56762;49.494;11.768;2023-03-15T10:28:42;6.49;70.59
69543;SHT31;56762;49.494;11.768;2023-03-15T10:31:12;6.57;71.50
69543;SHT31;56762;49.494;11.768;2023-03-15T10:33:53;6.54;70.56
69543;SHT31;56762;49.494;11.768;2023-03-15T10:36:23;6.15;69.43
69543;SHT31;56762;49.494;11.768;2023-03-15T10:38:51;5.99;71.91
69543;SHT31;56762;49.494;11.768;2023-03-15T10:41:28;5.70;72.34
69543;SHT31;56762;49.494;11.768;2023-03-15T10:43:59;5.55;74.43
69543;SHT31;56762;49.494;11.768;2023-03-15T10:46:27;5.60;73.84
69543;SHT31;56762;49.494;11.768;2023-03-15T10:48:58;5.74;75.09
69543;SHT31;56762;49.494;11.768;2023-03-15T10:51:27;5.84;74.59
69543;SHT31;56762;49.494;11.768;2023-03-15T10:53:57;5.94;72.87
69543;SHT31;56762;49.494;11.768;2023-03-15T10:56:30;6.09;73.22
69543;SHT31;56762;49.494;11.768;2023-03-15T10:59:01;6.02;70.07
69543;SHT31;56762;49.494;11.768;2023-03-15T11:01:38;5.75;73.11
69543;SHT31;56762;49.494;11.768;2023-03-15T11:04:13;5.42;75.11
69543;SHT31;56762;49.494;11.768;2023-03-15T11:06:45;5.09;76.57
69543;SHT31;56762;49.494;11.768;2023-03-15T11:09:15;4.76;77.58
69543;SHT31;56762;49.494;11.768;2023-03-15T11:11:57;4.37;79.77
69543;SHT31;56762;49.494;11.768;2023-03-15T11:14:28;4.07;80.70
69543;SHT31;56762;49.494;11.768;2023-03-15T11:17:00;4.06;82.40
69543;SHT31;56762;49.494;11.768;2023-03-15T11:19:31;4.01;83.16
69543;SHT31;56762;49.494;11.768;2023-03-15T11:22:02;4.09;85.00
69543;SHT31;56762;49.494;11.768;2023-03-15T11:24:32;4.27;84.31
69543;SHT31;56762;49.494;11.768;2023-03-15T11:27:05;4.45;85.34
69543;SHT31;56762;49.494;11.768;2023-03-15T11:29:36;4.47;83.34
69543;SHT31;56762;49.494;11.768;2023-03-15T11:32:11;4.58;83.34
69543;SHT31;56762;49.494;11.768;2023-03-15T11:34:45;4.85;84.59
69543;SHT31;56762;49.494;11.768;2023-03-15T11:37:18;4.96;84.11
69543;SHT31;56762;49.494;11.768;2023-03-15T11:39:51;5.18;83.30
69543;SHT31;56762;49.494;11.768;2023-03-15T11:42:38;5.24;83.00
69543;SHT31;56762;49.494;11.768;2023-03-15T11:45:14;5.36;82.63
69543;SHT31;56762;49.494;11.768;2023-03-15T11:47:47;5.36;83.00
69543;SHT31;56762;49.494;11.768;2023-03-15T11:50:18;5.33;82.74
69543;SHT31;56762;49.494;11.768;2023-03-15T11:52:47;5.24;82.34
69543;SHT31;56762;49.494;11.768;2023-03-15T11:55:18;5.34;82.56
69543;SHT31;56762;49.494;11.768;2023-03-15T11:57:47;5.37;82.46
69543;SHT31;56762;49.494;11.768;2023-03-15T12:03:38;5.13;82.42
69543;SHT31;56762;49.494;11.768;2023-03-15T12:06:33;4.93;82.00
69543;SHT31;56762;49.494;11.768;2023-03-15T12:09:01;4.91;82.94
69543;SHT31;56762;49.494;11.768;2023-03-15T12:11:39;4.71;80.49
69543;SHT31;56762;49.494;11.768;2023-03-15T12:14:24;4.71;82.39
69543;SHT31;56762;49.494;11.768;2023-03-15T12:17:35;4.64;82.40
69543;SHT31;56762;49.494;11.768;2023-03-15T12:20:10;4.57;82.10
69543;SHT31;56762;49.494;11.768;2023-03-15T12:22:45;4.50;81.72
69543;SHT31;56762;49.494;11.768;2023-03-15T12:25:19;4.45;80.94
69543;SHT31;56762;49.494;11.768;2023-03-15T12:27:51;4.38;81.60
69543;SHT31;56762;49.494;11.768;2023-03-15T12:30:22;4.36;82.36
69543;SHT31;56762;49.494;11.768;2023-03-15T12:32:52;4.45;81.82
69543;SHT31;56762;49.494;11.768;2023-03-15T12:35:23;4.42;81.58
69543;SHT31;56762;49.494;11.768;2023-03-15T12:37:57;4.42;81.66
69543;SHT31;56762;49.494;11.768;2023-03-15T12:40:48;4.48;81.82
69543;SHT31;56762;49.494;11.768;2023-03-15T12:43:38;4.51;80.68
69543;SHT31;56762;49.494;11.768;2023-03-15T12:46:06;4.58;81.48
69543;SHT31;56762;49.494;11.768;2023-03-15T12:49:05;4.54;81.79
69543;SHT31;56762;49.494;11.768;2023-03-15T12:51:42;4.60;80.44
69543;SHT31;56762;49.494;11.768;2023-03-15T12:54:13;4.62;80.77
69543;SHT31;56762;49.494;11.768;2023-03-15T12:56:46;4.68;81.15
69543;SHT31;56762;49.494;11.768;2023-03-15T12:59:24;4.67;80.46
69543;SHT31;56762;49.494;11.768;2023-03-15T13:01:54;4.67;81.40
69543;SHT31;56762;49.494;11.768;2023-03-15T13:04:25;4.79;80.69
69543;SHT31;56762;49.494;11.768;2023-03-15T13:07:09;4.82;80.30
69543;SHT31;56762;49.494;11.768;2023-03-15T13:10:06;4.73;79.76
69543;SHT31;56762;49.494;11.768;2023-03-15T13:12:41;4.48;80.61
69543;SHT31;56762;49.494;11.768;2023-03-15T13:15:15;4.60;81.32
69543;SHT31;56762;49.494;11.768;2023-03-15T13:17:48;4.55;80.09
69543;SHT31;56762;49.494;11.768;2023-03-15T13:20:26;4.55;81.69
69543;SHT31;56762;49.494;11.768;2023-03-15T13:23:02;4.55;80.54
69543;SHT31;56762;49.494;11.768;2023-03-15T13:25:37;4.55;80.88
69543;SHT31;56762;49.494;11.768;2023-03-15T13:28:15;4.58;80.77
69543;SHT31;56762;49.494;11.768;2023-03-15T13:30:47;4.44;79.29
69543;SHT31;56762;49.494;11.768;2023-03-15T13:33:21;4.45;79.98
69543;SHT31;56762;49.494;11.768;2023-03-15T13:35:55;4.45;78.89
69543;SHT31;56762;49.494;11.768;2023-03-15T13:38:27;4.62;79.84
69543;SHT31;56762;49.494;11.768;2023-03-15T13:40:59;4.62;79.41
69543;SHT31;56762;49.494;11.768;2023-03-15T13:43:30;4.76;80.15
69543;SHT31;56762;49.494;11.768;2023-03-15T13:45:59;4.76;78.77
69543;SHT31;56762;49.494;11.768;2023-03-15T13:48:28;4.71;78.18
69543;SHT31;56762;49.494;11.768;2023-03-15T13:51:01;4.73;79.20
69543;SHT31;56762;49.494;11.768;2023-03-15T13:53:31;4.72;78.94
69543;SHT31;56762;49.494;11.768;2023-03-15T13:56:17;4.79;79.74
69543;SHT31;56762;49.494;11.768;2023-03-15T13:58:47;4.76;79.87
69543;SHT31;56762;49.494;11.768;2023-03-15T14:01:16;4.89;79.80
69543;SHT31;56762;49.494;11.768;2023-03-15T14:03:48;4.93;78.72
69543;SHT31;56762;49.494;11.768;2023-03-15T14:06:21;5.08;77.97
69543;SHT31;56762;49.494;11.768;2023-03-15T14:08:50;5.03;78.49
69543;SHT31;56762;49.494;11.768;2023-03-15T14:11:33;5.02;78.87
69543;SHT31;56762;49.494;11.768;2023-03-15T14:14:18;5.06;79.97
69543;SHT31;56762;49.494;11.768;2023-03-15T14:16:47;5.22;78.24
69543;SHT31;56762;49.494;11.768;2023-03-15T14:19:32;5.27;79.06
69543;SHT31;56762;49.494;11.768;2023-03-15T14:22:02;5.30;76.92
69543;SHT31;56762;49.494;11.768;2023-03-15T14:24:34;5.34;77.95
69543;SHT31;56762;49.494;11.768;2023-03-15T14:27:07;5.27;77.77
69543;SHT31;56762;49.494;11.768;2023-03-15T14:29:37;5.15;77.33
69543;SHT31;56762;49.494;11.768;2023-03-15T14:32:07;5.19;77.79
69543;SHT31;56762;49.494;11.768;2023-03-15T14:34:49;5.19;77.04
69543;SHT31;56762;49.494;11.768;2023-03-15T14:37:29;5.02;76.21
69543;SHT31;56762;49.494;11.768;2023-03-15T14:40:05;5.03;76.91
69543;SHT31;56762;49.494;11.768;2023-03-15T14:42:42;5.00;77.56
69543;SHT31;56762;49.494;11.768;2023-03-15T14:45:10;4.95;78.70
69543;SHT31;56762;49.494;11.768;2023-03-15T14:47:42;4.93;76.96
69543;SHT31;56762;49.494;11.768;2023-03-15T14:50:22;4.92;76.79
69543;SHT31;56762;49.494;11.768;2023-03-15T14:52:51;5.00;78.64
69543;SHT31;56762;49.494;11.768;2023-03-15T14:55:23;5.05;77.75
69543;SHT31;56762;49.494;11.768;2023-03-15T14:57:52;5.09;76.64
69543;SHT31;56762;49.494;11.768;2023-03-15T15:00:20;5.08;76.19
69543;SHT31;56762;49.494;11.768;2023-03-15T15:02:50;5.00;76.31
69543;SHT31;56762;49.494;11.768;2023-03-15T15:05:21;4.96;76.62
69543;SHT31;56762;49.494;11.768;2023-03-15T15:07:51;4.97;77.65
69543;SHT31;56762;49.494;11.768;2023-03-15T15:10:20;4.92;77.37
69543;SHT31;56762;49.494;11.768;2023-03-15T15:12:48;4.85;78.12
69543;SHT31;56762;49.494;11.768;2023-03-15T15:15:32;4.86;78.07
69543;SHT31;56762;49.494;11.768;2023-03-15T15:18:20;4.81;79.26
69543;SHT31;56762;49.494;11.768;2023-03-15T15:20:48;4.69;78.35
69543;SHT31;56762;49.494;11.768;2023-03-15T15:23:21;4.61;78.93
69543;SHT31;56762;49.494;11.768;2023-03-15T15:25:50;4.58;79.87
69543;SHT31;56762;49.494;11.768;2023-03-15T15:28:19;4.65;79.39
69543;SHT31;56762;49.494;11.768;2023-03-15T15:31:02;4.65;79.42
69543;SHT31;56762;49.494;11.768;2023-03-15T15:33:30;4.68;80.38
69543;SHT31;56762;49.494;11.768;2023-03-15T15:35:59;4.52;80.09
69543;SHT31;56762;49.494;11.768;2023-03-15T15:38:29;4.42;80.74
69543;SHT31;56762;49.494;11.768;2023-03-15T15:41:01;4.27;80.25
69543;SHT31;56762;49.494;11.768;2023-03-15T15:43:29;4.04;81.13
69543;SHT31;56762;49.494;11.768;2023-03-15T15:45:59;3.86;81.67
69543;SHT31;56762;49.494;11.768;2023-03-15T15:48:28;3.73;82.07
69543;SHT31;56762;49.494;11.768;2023-03-15T15:50:56;3.73;81.57
69543;SHT31;56762;49.494;11.768;2023-03-15T15:53:31;3.73;82.23
69543;SHT31;56762;49.494;11.768;2023-03-15T15:55:59;3.72;81.38
69543;SHT31;56762;49.494;11.768;2023-03-15T15:58:27;3.72;82.50